Time;durP1;ratioP1;P1;durP2;ratioP2;P2;SDS_P1;SDS_P2;PMS_P1;PMS_P2;Temp;Humidity;BMP_temperature;BMP_pressure;BME280_temperature;BME280_humidity;BME280_pressure;Samples;Min_cycle;Max_cycle;Signal;HPM_P1;HPM_P2
2022/07/05 00:00:52;;;;;;;2.50;1.60;;;26.20;51.60;;;;;;6183486;28;20037;-72
2022/07/05 00:03:53;;;;;;;3.35;1.65;;;26.30;51.90;;;;;;6183292;28;20030;-72
2022/07/05 00:10:13;;;;;;;4.85;1.45;;;26.30;52.20;;;;;;6183084;28;20034;-72
2022/07/05 00:13:14;;;;;;;9.02;1.65;;;26.30;52.30;;;;;;6182967;28;20097;-73
2022/07/05 00:16:15;;;;;;;4.22;1.38;;;26.30;52.30;;;;;;6184025;28;20117;-72
2022/07/05 00:19:16;;;;;;;2.45;1.17;;;26.40;52.10;;;;;;6160229;28;20050;-72
2022/07/05 00:22:17;;;;;;;2.45;0.88;;;26.30;51.40;;;;;;6183990;28;20114;-72
2022/07/05 00:25:18;;;;;;;2.55;1.55;;;26.30;50.90;;;;;;6166945;28;20077;-72
2022/07/05 00:28:19;;;;;;;1.55;0.90;;;26.30;50.30;;;;;;6166815;28;20059;-72
2022/07/05 00:31:19;;;;;;;0.95;0.88;;;26.30;50.00;;;;;;6166884;28;20039;-70
2022/07/05 00:34:20;;;;;;;1.27;1.05;;;26.30;49.70;;;;;;6183638;28;20031;-72
2022/07/05 00:37:21;;;;;;;1.02;0.93;;;26.30;49.50;;;;;;6163374;28;20363;-73
2022/07/05 00:40:22;;;;;;;3.13;1.08;;;26.20;49.40;;;;;;6183775;28;20027;-72
2022/07/05 00:43:23;;;;;;;7.15;1.05;;;26.20;49.30;;;;;;6166668;28;20058;-71
2022/07/05 00:46:25;;;;;;;2.90;1.10;;;26.20;49.20;;;;;;6150670;28;20089;-72
2022/07/05 00:49:26;;;;;;;2.10;1.20;;;26.10;49.20;;;;;;6163540;28;20039;-72
2022/07/05 00:52:28;;;;;;;6.32;1.00;;;26.00;49.30;;;;;;6179872;28;20035;-72
2022/07/05 00:55:29;;;;;;;2.63;0.90;;;25.90;49.30;;;;;;6179631;28;20138;-71
2022/07/05 00:58:32;;;;;;;7.30;1.20;;;25.80;49.40;;;;;;6146581;28;20027;-71
2022/07/05 01:01:33;;;;;;;1.38;0.98;;;25.80;49.60;;;;;;6174361;28;20045;-73
2022/07/05 01:04:34;;;;;;;3.65;1.23;;;25.70;49.60;;;;;;6178480;28;20031;-72
2022/07/05 01:07:35;;;;;;;4.13;1.30;;;25.60;49.60;;;;;;6179163;28;20093;-72
2022/07/05 01:10:37;;;;;;;2.58;1.20;;;25.60;49.70;;;;;;6160255;28;20182;-72
2022/07/05 01:13:38;;;;;;;2.63;1.10;;;25.60;49.80;;;;;;6178658;28;20459;-71
2022/07/05 01:16:39;;;;;;;4.60;1.20;;;25.60;49.80;;;;;;6178661;28;20058;-71
2022/07/05 01:19:40;;;;;;;3.60;1.27;;;25.60;49.80;;;;;;6150185;28;20047;-73
2022/07/05 01:22:53;;;;;;;6.03;1.30;;;25.50;49.80;;;;;;6123498;29;20408;-72
2022/07/05 01:25:55;;;;;;;3.47;1.20;;;25.40;49.90;;;;;;6138233;29;20038;-71
2022/07/05 01:28:56;;;;;;;1.88;1.17;;;25.40;50.00;;;;;;6138293;29;20036;-72
2022/07/05 01:31:57;;;;;;;4.10;1.33;;;25.30;50.20;;;;;;6140704;29;20035;-73
2022/07/05 01:34:58;;;;;;;5.00;1.15;;;25.20;50.30;;;;;;6154814;29;20102;-71
2022/07/05 01:37:59;;;;;;;1.95;1.20;;;25.20;50.40;;;;;;6138072;29;20106;-71
2022/07/05 01:41:00;;;;;;;2.95;0.98;;;25.20;50.60;;;;;;6137958;29;20046;-72
2022/07/05 01:44:03;;;;;;;4.07;1.27;;;25.20;50.60;;;;;;6138007;29;20089;-72
2022/07/05 01:47:05;;;;;;;5.43;0.93;;;25.20;50.60;;;;;;6138175;29;20357;-71
2022/07/05 01:50:09;;;;;;;7.43;1.60;;;25.20;50.60;;;;;;6158665;28;20101;-72
2022/07/05 01:53:30;;;;;;;2.60;1.10;;;25.20;50.60;;;;;;6161603;28;20070;-72
2022/07/05 01:56:31;;;;;;;4.75;1.50;;;25.20;50.70;;;;;;6178126;28;20015;-71
2022/07/05 01:59:34;;;;;;;3.63;2.05;;;25.20;50.70;;;;;;6176901;28;20058;-72
2022/07/05 02:02:39;;;;;;;2.35;1.40;;;25.20;50.90;;;;;;6139125;29;20432;-72
2022/07/05 02:05:41;;;;;;;2.38;1.35;;;25.20;50.90;;;;;;6148743;28;20086;-73
2022/07/05 02:08:43;;;;;;;2.33;1.42;;;25.20;50.90;;;;;;6161053;28;20053;-71
2022/07/05 02:11:45;;;;;;;11.68;1.50;;;25.20;50.80;;;;;;6145209;28;20042;-71
2022/07/05 02:14:46;;;;;;;8.13;1.88;;;25.20;50.90;;;;;;6144914;28;20046;-72
2022/07/05 02:17:50;;;;;;;1.77;1.20;;;25.10;51.10;;;;;;6160533;28;20065;-71
2022/07/05 02:20:52;;;;;;;1.73;1.13;;;25.10;51.00;;;;;;6160649;28;20058;-72
2022/07/05 02:23:53;;;;;;;10.05;1.17;;;25.00;51.10;;;;;;6160737;28;20367;-72
2022/07/05 02:26:57;;;;;;;5.45;1.10;;;25.00;51.20;;;;;;6160750;28;20031;-71
2022/07/05 02:30:00;;;;;;;3.97;1.20;;;25.00;51.30;;;;;;6144847;28;20045;-72
2022/07/05 02:33:09;;;;;;;2.30;1.15;;;25.00;51.30;;;;;;6145562;28;20041;-72
2022/07/05 02:36:12;;;;;;;2.00;1.15;;;25.00;51.20;;;;;;6177377;28;20363;-72
2022/07/05 02:39:13;;;;;;;2.17;1.13;;;25.00;51.20;;;;;;6160392;28;20471;-71
2022/07/05 02:42:14;;;;;;;2.92;0.90;;;24.90;51.20;;;;;;6160361;28;20035;-71
2022/07/05 02:45:15;;;;;;;2.45;1.35;;;24.90;51.30;;;;;;6144448;28;20440;-72
2022/07/05 02:48:18;;;;;;;5.30;1.10;;;24.90;51.40;;;;;;6156783;28;20038;-72
2022/07/05 02:51:19;;;;;;;2.97;1.25;;;24.90;51.50;;;;;;6160180;28;20033;-73
2022/07/05 02:54:23;;;;;;;5.53;1.48;;;24.90;51.50;;;;;;6159981;28;20093;-72
2022/07/05 02:57:25;;;;;;;4.50;1.30;;;24.90;51.60;;;;;;6159682;28;20027;-72
2022/07/05 03:00:27;;;;;;;1.40;1.13;;;24.90;51.60;;;;;;6137145;29;20039;-72
2022/07/05 03:03:28;;;;;;;2.78;1.15;;;24.90;51.60;;;;;;6151973;29;20046;-72
2022/07/05 03:06:29;;;;;;;2.60;1.15;;;24.90;51.60;;;;;;6153025;29;20036;-72
2022/07/05 03:09:34;;;;;;;3.33;1.30;;;24.90;51.60;;;;;;6152497;28;20054;-72
2022/07/05 03:12:37;;;;;;;3.83;1.30;;;25.00;51.50;;;;;;6171968;28;20041;-72
2022/07/05 03:15:40;;;;;;;3.97;1.10;;;24.90;51.50;;;;;;6175781;28;20039;-72
2022/07/05 03:18:41;;;;;;;5.32;1.27;;;24.90;51.50;;;;;;6154236;28;20380;-72
2022/07/05 03:21:43;;;;;;;2.10;0.95;;;24.90;51.50;;;;;;6143796;28;20031;-71
2022/07/05 03:24:45;;;;;;;1.48;1.10;;;24.90;51.40;;;;;;6156466;28;20031;-71
2022/07/05 03:27:47;;;;;;;9.95;1.30;;;24.90;51.30;;;;;;6159508;28;20037;-71
2022/07/05 03:30:48;;;;;;;4.07;1.55;;;24.80;51.80;;;;;;6143842;28;20031;-71
2022/07/05 03:33:49;;;;;;;1.08;0.90;;;24.80;51.20;;;;;;6176457;28;20121;-71
2022/07/05 03:36:50;;;;;;;2.92;1.23;;;24.70;51.10;;;;;;6143532;28;20045;-72
2022/07/05 03:39:53;;;;;;;1.35;1.15;;;24.70;51.20;;;;;;6176470;28;20027;-72
2022/07/05 03:42:54;;;;;;;3.17;1.25;;;24.70;51.20;;;;;;6159352;28;20379;-71
2022/07/05 03:45:55;;;;;;;6.88;1.38;;;24.70;51.20;;;;;;6143396;28;20090;-71
2022/07/05 03:48:58;;;;;;;3.45;0.90;;;24.60;51.30;;;;;;6143332;28;20027;-72
2022/07/05 03:51:59;;;;;;;3.00;1.33;;;24.60;51.40;;;;;;6159220;28;20371;-71
2022/07/05 03:55:01;;;;;;;2.33;1.45;;;24.50;51.40;;;;;;6176223;28;20046;-71
2022/07/05 03:58:02;;;;;;;2.58;1.05;;;24.50;51.60;;;;;;6143324;28;20344;-71
2022/07/05 04:01:03;;;;;;;2.92;1.05;;;24.40;51.70;;;;;;6159155;28;20026;-71
2022/07/05 04:04:05;;;;;;;2.05;1.08;;;24.30;51.70;;;;;;6175588;28;20093;-72
2022/07/05 04:07:07;;;;;;;4.40;1.27;;;24.30;51.90;;;;;;6129486;29;20122;-71
2022/07/05 04:10:11;;;;;;;1.88;1.10;;;24.20;52.00;;;;;;6135224;29;20174;-72
2022/07/05 04:13:12;;;;;;;3.70;1.15;;;24.20;52.10;;;;;;6119301;29;20035;-70
2022/07/05 04:16:13;;;;;;;5.68;1.38;;;24.20;52.20;;;;;;6135078;29;20055;-71
2022/07/05 04:19:13;;;;;;;2.58;1.35;;;24.20;52.30;;;;;;6148459;28;20556;-71
2022/07/05 04:22:14;;;;;;;2.28;1.40;;;24.20;52.40;;;;;;6158838;28;20038;-72
2022/07/05 04:25:19;;;;;;;4.38;1.60;;;24.20;52.50;;;;;;6161399;28;20031;-72
2022/07/05 04:28:25;;;;;;;6.80;1.50;;;24.10;52.60;;;;;;6163436;28;20045;-72
2022/07/05 04:31:28;;;;;;;1.58;1.13;;;24.10;52.60;;;;;;6163645;28;20027;-72
2022/07/05 04:34:30;;;;;;;11.98;1.65;;;24.10;52.60;;;;;;6162976;28;20042;-72
2022/07/05 04:37:32;;;;;;;3.58;1.05;;;24.20;52.70;;;;;;6163337;28;20031;-73
2022/07/05 04:40:32;;;;;;;2.90;1.13;;;24.20;52.60;;;;;;6163197;28;20050;-71
2022/07/05 04:43:34;;;;;;;4.10;1.30;;;24.20;52.50;;;;;;6176905;28;20117;-71
2022/07/05 04:46:37;;;;;;;3.03;1.02;;;24.30;52.40;;;;;;6162866;28;20082;-72
2022/07/05 04:49:38;;;;;;;2.00;1.30;;;24.30;52.20;;;;;;6162623;28;20359;-71
2022/07/05 04:52:39;;;;;;;5.82;1.25;;;24.30;52.00;;;;;;6146371;28;20030;-72
2022/07/05 04:55:40;;;;;;;2.55;1.08;;;24.40;51.90;;;;;;6146805;28;20065;-72
2022/07/05 04:58:41;;;;;;;6.47;1.40;;;24.50;51.80;;;;;;6162800;28;20049;-73
2022/07/05 05:01:42;;;;;;;2.30;0.90;;;24.50;51.60;;;;;;6162538;28;20049;-71
2022/07/05 05:04:43;;;;;;;2.08;0.85;;;24.50;51.50;;;;;;6179317;28;20034;-71
2022/07/05 05:07:44;;;;;;;9.95;1.50;;;24.50;51.30;;;;;;6162459;28;20393;-72
2022/07/05 05:10:45;;;;;;;4.38;1.20;;;24.50;51.30;;;;;;6162494;28;20448;-71
2022/07/05 05:13:46;;;;;;;2.95;1.20;;;24.60;51.30;;;;;;6146187;28;20038;-71
2022/07/05 05:16:47;;;;;;;3.92;1.13;;;24.60;51.30;;;;;;6146449;28;20035;-72
2022/07/05 05:19:48;;;;;;;4.47;1.63;;;24.50;51.30;;;;;;6144976;28;20471;-72
2022/07/05 05:22:49;;;;;;;8.88;1.27;;;24.60;51.30;;;;;;6160298;28;20055;-72
2022/07/05 05:25:50;;;;;;;5.28;1.42;;;24.50;51.30;;;;;;6162083;28;20034;-72
2022/07/05 05:28:52;;;;;;;4.03;1.27;;;24.50;51.20;;;;;;6161906;28;20050;-73
2022/07/05 05:31:54;;;;;;;2.17;1.25;;;24.50;51.20;;;;;;6158756;28;20332;-72
2022/07/05 05:34:55;;;;;;;2.33;1.15;;;24.60;51.10;;;;;;6145010;28;20367;-72
2022/07/05 05:37:56;;;;;;;6.10;1.40;;;24.60;51.10;;;;;;6161649;28;20043;-72
2022/07/05 05:40:57;;;;;;;5.32;1.30;;;24.60;51.70;;;;;;6178707;28;20415;-71
2022/07/05 05:43:58;;;;;;;5.95;1.65;;;24.50;51.00;;;;;;6161625;28;20078;-72
2022/07/05 05:47:00;;;;;;;7.07;1.50;;;24.50;51.00;;;;;;6161481;28;20104;-72
2022/07/05 05:50:01;;;;;;;8.50;1.63;;;24.50;51.00;;;;;;6178011;28;20031;-71
2022/07/05 05:53:02;;;;;;;2.63;1.20;;;24.50;51.00;;;;;;6178196;28;20034;-71
2022/07/05 05:56:03;;;;;;;3.35;1.40;;;24.60;51.00;;;;;;6161047;28;20034;-71
2022/07/05 05:59:04;;;;;;;8.82;2.40;;;24.60;51.00;;;;;;6171615;28;20443;-72
2022/07/05 06:02:06;;;;;;;3.75;1.23;;;24.70;51.00;;;;;;6178172;28;20030;-72
2022/07/05 06:05:07;;;;;;;12.63;1.83;;;24.60;51.00;;;;;;6148890;28;20117;-73
2022/07/05 06:08:08;;;;;;;11.48;1.50;;;24.60;51.10;;;;;;6153880;29;20063;-71
2022/07/05 06:11:09;;;;;;;6.65;1.77;;;24.60;51.30;;;;;;6137104;29;20031;-72
2022/07/05 06:14:11;;;;;;;12.20;1.70;;;24.60;51.30;;;;;;6153778;29;20107;-72
2022/07/05 06:17:12;;;;;;;8.50;1.70;;;24.60;51.20;;;;;;6153438;29;20031;-71
2022/07/05 06:20:18;;;;;;;8.90;1.77;;;24.70;51.00;;;;;;6158224;28;20423;-72
2022/07/05 06:23:19;;;;;;;6.05;1.85;;;24.80;51.00;;;;;;6160466;28;20054;-73
2022/07/05 06:26:21;;;;;;;3.45;1.80;;;24.90;51.50;;;;;;6159918;28;20463;-72
2022/07/05 06:29:21;;;;;;;10.80;1.50;;;25.00;50.70;;;;;;6160220;28;20031;-72
2022/07/05 06:32:22;;;;;;;5.40;1.55;;;25.10;51.10;;;;;;6159915;28;20116;-73
2022/07/05 06:35:24;;;;;;;13.85;1.80;;;25.10;50.30;;;;;;6159739;28;20050;-71
2022/07/05 06:38:24;;;;;;;7.95;1.60;;;25.10;50.30;;;;;;6159760;28;20042;-72
2022/07/05 06:41:25;;;;;;;6.40;1.20;;;25.10;50.20;;;;;;6143865;28;20031;-72
2022/07/05 06:44:26;;;;;;;4.90;1.65;;;25.10;50.10;;;;;;6140647;28;20049;-72
2022/07/05 06:47:27;;;;;;;7.35;1.35;;;25.20;50.00;;;;;;6175004;28;20106;-71
2022/07/05 06:50:30;;;;;;;27.48;2.50;;;25.20;49.90;;;;;;6143490;28;20046;-72
2022/07/05 06:53:31;;;;;;;3.30;1.38;;;25.20;49.70;;;;;;6159254;28;20035;-72
2022/07/05 06:56:32;;;;;;;3.88;1.60;;;25.20;49.50;;;;;;6175602;28;20031;-72
2022/07/05 06:59:33;;;;;;;3.38;1.42;;;25.30;49.40;;;;;;6175389;28;20031;-72
2022/07/05 07:02:34;;;;;;;3.03;1.30;;;25.40;49.30;;;;;;6175583;28;20047;-72
2022/07/05 07:05:35;;;;;;;5.55;1.27;;;25.50;49.10;;;;;;6159197;28;20137;-72
2022/07/05 07:11:55;;;;;;;7.75;1.23;;;25.70;48.70;;;;;;6176704;28;20314;-72
2022/07/05 07:14:57;;;;;;;6.07;1.60;;;25.80;48.50;;;;;;6176360;28;20108;-72
2022/07/05 07:17:58;;;;;;;4.40;1.42;;;26.00;48.30;;;;;;6178446;28;20378;-71
2022/07/05 07:20:59;;;;;;;10.07;1.40;;;26.10;48.00;;;;;;6156262;28;20019;-71
2022/07/05 07:24:00;;;;;;;3.03;1.05;;;26.20;47.80;;;;;;6159444;28;20522;-72
2022/07/05 07:27:04;;;;;;;5.30;1.33;;;26.30;47.50;;;;;;6158306;28;20039;-72
2022/07/05 07:30:06;;;;;;;2.33;1.10;;;26.40;47.30;;;;;;6137582;29;20031;-72
2022/07/05 07:33:07;;;;;;;2.95;1.10;;;26.60;47.20;;;;;;6134851;29;20062;-74
2022/07/05 07:36:08;;;;;;;3.15;1.30;;;26.80;46.90;;;;;;6139644;29;20102;-73
2022/07/05 07:39:09;;;;;;;4.65;1.25;;;26.90;46.40;;;;;;6158272;28;20056;-73
2022/07/05 07:42:10;;;;;;;1.25;1.13;;;27.10;46.10;;;;;;6158387;28;20391;-73
2022/07/05 07:45:11;;;;;;;8.05;1.52;;;27.20;45.90;;;;;;6158373;28;20042;-72
2022/07/05 07:48:12;;;;;;;4.55;1.65;;;27.30;45.60;;;;;;6158100;28;20062;-73
2022/07/05 07:51:13;;;;;;;3.40;0.90;;;27.40;45.30;;;;;;6162352;28;20168;-73
2022/07/05 07:54:13;;;;;;;7.03;1.08;;;27.60;44.90;;;;;;6174931;28;20349;-73
2022/07/05 07:57:14;;;;;;;4.10;0.90;;;27.80;44.60;;;;;;6158069;28;20034;-71
2022/07/05 08:00:15;;;;;;;1.48;1.05;;;27.90;44.10;;;;;;6178305;28;20122;-73
2022/07/05 08:03:16;;;;;;;2.78;1.30;;;28.00;43.60;;;;;;6140575;29;20098;-72
2022/07/05 08:06:18;;;;;;;3.63;1.10;;;28.10;43.30;;;;;;6138853;29;20508;-73
2022/07/05 08:09:18;;;;;;;4.82;1.17;;;28.20;43.00;;;;;;6138915;29;20035;-73
2022/07/05 08:12:19;;;;;;;2.97;1.00;;;28.30;42.50;;;;;;6138840;29;20472;-72
2022/07/05 08:15:20;;;;;;;2.55;1.30;;;28.40;42.30;;;;;;6138880;29;20525;-73
2022/07/05 08:21:41;;;;;;;3.78;0.90;;;28.50;41.90;;;;;;6179571;28;20026;-71
2022/07/05 08:24:41;;;;;;;1.27;0.80;;;28.50;41.80;;;;;;6162706;28;20122;-71
2022/07/05 08:27:42;;;;;;;2.67;0.90;;;28.50;41.80;;;;;;6146424;28;20038;-73
2022/07/05 08:30:43;;;;;;;2.72;1.10;;;28.50;41.80;;;;;;6162543;28;20053;-74
2022/07/05 08:33:44;;;;;;;6.97;1.42;;;28.50;41.80;;;;;;6179290;28;20112;-72
2022/07/05 08:36:46;;;;;;;1.63;0.85;;;28.50;41.70;;;;;;6175753;28;20340;-72
2022/07/05 08:39:47;;;;;;;2.33;0.90;;;28.70;41.70;;;;;;6181737;28;20030;-72
2022/07/05 08:42:48;;;;;;;5.45;1.08;;;28.80;41.50;;;;;;6161882;28;20416;-72
2022/07/05 08:45:51;;;;;;;5.65;1.63;;;28.90;41.50;;;;;;6181668;28;20468;-72
2022/07/05 08:48:51;;;;;;;4.50;1.00;;;29.00;41.30;;;;;;6145645;28;20371;-72
2022/07/05 08:51:54;;;;;;;6.25;1.50;;;29.10;41.30;;;;;;6178785;28;20045;-72
2022/07/05 08:54:55;;;;;;;5.05;1.42;;;29.30;41.20;;;;;;6161803;28;20129;-73
2022/07/05 08:57:56;;;;;;;7.30;1.20;;;29.50;41.00;;;;;;6162093;28;20069;-73
2022/07/05 09:00:58;;;;;;;3.70;1.27;;;29.60;41.00;;;;;;6161681;28;20387;-72
2022/07/05 09:04:03;;;;;;;5.15;1.00;;;29.70;40.80;;;;;;6178599;28;20446;-73
2022/07/05 09:07:07;;;;;;;2.78;1.33;;;29.70;40.80;;;;;;6178557;28;20054;-71
2022/07/05 09:10:11;;;;;;;2.20;1.63;;;29.80;41.40;;;;;;6160592;28;20440;-72
2022/07/05 09:13:12;;;;;;;6.18;1.42;;;29.80;40.80;;;;;;6178467;28;20067;-73
2022/07/05 09:16:13;;;;;;;9.98;1.20;;;29.90;40.70;;;;;;6178511;28;20034;-72
2022/07/05 09:19:14;;;;;;;8.32;1.30;;;30.00;40.70;;;;;;6160878;28;20170;-71
2022/07/05 09:22:15;;;;;;;3.65;1.58;;;30.00;40.60;;;;;;6157754;28;20367;-72
2022/07/05 09:25:19;;;;;;;3.47;1.25;;;30.10;40.50;;;;;;6158104;28;20085;-72
2022/07/05 09:28:20;;;;;;;13.65;1.48;;;30.10;40.40;;;;;;6145081;28;20085;-73
2022/07/05 09:31:33;;;;;;;4.10;1.30;;;30.10;40.40;;;;;;6160905;28;20034;-72
2022/07/05 09:34:34;;;;;;;2.97;1.65;;;30.10;40.50;;;;;;6160494;28;20079;-71
2022/07/05 09:37:44;;;;;;;6.60;1.27;;;30.00;40.50;;;;;;6160825;28;20054;-71
2022/07/05 09:40:50;;;;;;;3.63;1.38;;;30.00;40.60;;;;;;6177968;28;20031;-73
2022/07/05 09:43:51;;;;;;;2.40;1.15;;;30.10;40.60;;;;;;6160963;28;20050;-73
2022/07/05 09:47:09;;;;;;;2.35;1.30;;;30.10;40.60;;;;;;6160751;28;20050;-72
2022/07/05 09:50:13;;;;;;;5.40;1.30;;;30.10;40.70;;;;;;6160184;28;20050;-74
2022/07/05 09:53:14;;;;;;;2.08;1.17;;;30.20;40.90;;;;;;6162887;28;20045;-72
2022/07/05 09:56:17;;;;;;;1.48;1.30;;;30.20;40.80;;;;;;6160574;28;20094;-72
2022/07/05 09:59:19;;;;;;;8.40;1.70;;;30.30;40.90;;;;;;6159897;28;20492;-72
2022/07/05 10:02:44;;;;;;;2.50;1.35;;;30.20;40.80;;;;;;6155279;28;20082;-74
2022/07/05 10:05:45;;;;;;;8.52;1.92;;;30.30;40.80;;;;;;6152769;29;20043;-73
2022/07/05 10:08:48;;;;;;;3.50;1.50;;;30.40;40.60;;;;;;6136003;29;20047;-74
2022/07/05 10:11:50;;;;;;;8.55;1.60;;;30.50;40.60;;;;;;6135939;29;20117;-73
2022/07/05 10:14:52;;;;;;;1.52;1.38;;;30.50;40.40;;;;;;6135934;29;20039;-73
2022/07/05 10:17:54;;;;;;;1.63;1.10;;;30.50;40.40;;;;;;6119752;29;20130;-72
2022/07/05 10:20:55;;;;;;;5.43;1.60;;;30.60;40.30;;;;;;6152379;28;20023;-74
2022/07/05 10:23:56;;;;;;;8.55;1.30;;;30.60;40.40;;;;;;6136004;29;20052;-73
2022/07/05 10:26:57;;;;;;;2.85;1.50;;;30.60;40.30;;;;;;6152988;29;20035;-73
2022/07/05 10:29:59;;;;;;;5.70;1.30;;;30.60;40.40;;;;;;6155030;28;20416;-73
2022/07/05 10:33:05;;;;;;;2.30;1.15;;;30.60;40.40;;;;;;6159699;28;20031;-74
2022/07/05 10:36:10;;;;;;;4.03;1.45;;;30.60;40.30;;;;;;6158602;28;20337;-74
2022/07/05 10:39:11;;;;;;;1.38;1.17;;;30.60;40.40;;;;;;6143075;28;20388;-74
2022/07/05 10:42:14;;;;;;;3.15;1.33;;;30.60;40.40;;;;;;6158774;28;20458;-73
2022/07/05 10:45:38;;;;;;;5.70;1.35;;;30.60;40.30;;;;;;6142774;28;20030;-73
2022/07/05 10:48:39;;;;;;;1.65;1.20;;;30.60;40.40;;;;;;6159020;28;20030;-75
2022/07/05 10:51:41;;;;;;;2.28;1.42;;;30.70;40.30;;;;;;6176070;28;20345;-76
2022/07/05 10:55:16;;;;;;;2.90;1.38;;;30.80;40.30;;;;;;6142713;28;20026;-76
2022/07/05 10:58:17;;;;;;;4.07;1.50;;;30.80;40.40;;;;;;6143154;28;20113;-76
2022/07/05 11:01:18;;;;;;;5.65;1.70;;;30.80;40.30;;;;;;6158903;28;20030;-74
2022/07/05 11:04:26;;;;;;;3.78;1.33;;;30.90;40.30;;;;;;6143035;28;20332;-76
2022/07/05 11:07:58;;;;;;;1.10;1.00;;;30.90;40.30;;;;;;6175986;28;20031;-76
2022/07/05 11:11:13;;;;;;;2.17;1.63;;;31.30;39.90;;;;;;6158638;28;20031;-75
2022/07/05 11:14:23;;;;;;;1.70;1.30;;;32.30;38.40;;;;;;6142852;28;20031;-76
2022/07/05 11:17:26;;;;;;;3.63;1.50;;;33.10;36.90;;;;;;6172327;28;20062;-77
2022/07/05 11:20:29;;;;;;;3.78;1.25;;;33.90;35.70;;;;;;6157808;28;20071;-75
2022/07/05 11:23:30;;;;;;;2.20;1.42;;;34.40;34.80;;;;;;6175810;28;20124;-75
2022/07/05 11:26:31;;;;;;;2.35;1.48;;;34.80;34.00;;;;;;6158523;28;20030;-76
2022/07/05 11:29:54;;;;;;;2.10;1.35;;;35.10;33.50;;;;;;6175284;28;20026;-74
2022/07/05 11:32:58;;;;;;;2.22;1.48;;;35.30;33.10;;;;;;6154558;28;20038;-74
2022/07/05 11:35:59;;;;;;;2.13;1.50;;;35.60;32.80;;;;;;6142323;28;20442;-75
2022/07/05 11:39:08;;;;;;;3.63;1.60;;;35.80;32.40;;;;;;6155051;28;20070;-75
2022/07/05 11:42:10;;;;;;;3.13;1.42;;;36.00;32.00;;;;;;6142516;28;20472;-76
2022/07/05 11:45:11;;;;;;;3.50;1.80;;;35.90;31.90;;;;;;6162276;28;20034;-75
2022/07/05 11:48:16;;;;;;;1.45;1.35;;;35.80;32.00;;;;;;6152478;28;20022;-76
2022/07/05 11:51:17;;;;;;;2.50;1.30;;;35.90;31.90;;;;;;6153109;28;20476;-76
2022/07/05 11:54:23;;;;;;;3.95;1.25;;;35.90;31.80;;;;;;6145262;28;20082;-75
2022/07/05 11:57:24;;;;;;;2.38;1.40;;;35.70;31.60;;;;;;6156859;28;20035;-76
2022/07/05 12:00:32;;;;;;;3.50;1.42;;;35.70;32.50;;;;;;6159710;28;20049;-74
2022/07/05 12:03:33;;;;;;;;;;;35.70;31.90;;;;;;6162101;28;20042;-74
2022/07/05 12:06:41;;;;;;;10.52;1.35;;;35.80;31.60;;;;;;6160373;28;19914;-75
2022/07/05 12:13:09;;;;;;;11.18;1.80;;;36.00;30.90;;;;;;6138016;28;20039;-75
2022/07/05 12:16:12;;;;;;;4.45;1.60;;;36.10;30.80;;;;;;6139337;28;20027;-75
2022/07/05 12:19:25;;;;;;;3.00;1.27;;;36.20;30.70;;;;;;6145118;28;21630;-72
2022/07/05 12:22:45;;;;;;;3.92;1.45;;;36.30;30.50;;;;;;6154986;28;20035;-73
2022/07/05 12:25:46;;;;;;;8.10;1.15;;;36.50;30.10;;;;;;6153636;28;20050;-74
2022/07/05 12:28:47;;;;;;;6.28;1.40;;;36.60;29.90;;;;;;6151167;28;20064;-72
2022/07/05 12:32:03;;;;;;;2.80;1.35;;;36.60;29.70;;;;;;6151802;28;20030;-73
2022/07/05 12:35:04;;;;;;;4.97;1.23;;;36.70;29.60;;;;;;6135575;28;20027;-72
2022/07/05 12:38:14;;;;;;;3.47;1.10;;;36.90;29.30;;;;;;6151666;28;20034;-72
2022/07/05 12:41:24;;;;;;;6.30;1.23;;;37.00;29.20;;;;;;6156587;28;20047;-72
2022/07/05 12:44:25;;;;;;;3.28;1.20;;;37.10;28.90;;;;;;6136982;28;20034;-72
2022/07/05 12:47:26;;;;;;;2.95;1.60;;;37.00;28.60;;;;;;6137354;28;20042;-73
2022/07/05 12:50:29;;;;;;;9.88;1.40;;;36.90;28.70;;;;;;6156303;28;20035;-72
2022/07/05 13:00:15;;;;;;;7.25;1.20;;;36.90;28.50;;;;;;6177985;28;20388;-72
2022/07/05 13:03:16;;;;;;;4.00;1.17;;;37.20;28.10;;;;;;6177581;28;20034;-72
2022/07/05 13:06:17;;;;;;;4.40;1.20;;;37.40;27.80;;;;;;6155275;28;20133;-72
2022/07/05 13:09:38;;;;;;;4.50;0.98;;;37.70;27.60;;;;;;6169100;28;20022;-73
2022/07/05 13:12:39;;;;;;;2.78;1.30;;;37.80;27.40;;;;;;6175011;28;20119;-72
2022/07/05 13:15:40;;;;;;;2.05;1.23;;;38.10;27.10;;;;;;6164948;28;20049;-73
2022/07/05 13:18:41;;;;;;;2.63;1.17;;;38.20;26.60;;;;;;6176223;28;20197;-73
2022/07/05 13:21:41;;;;;;;1.98;1.05;;;38.30;26.50;;;;;;6163938;28;20031;-73
2022/07/05 13:24:43;;;;;;;10.32;1.23;;;38.60;26.20;;;;;;6168205;28;20034;-73
2022/07/05 13:27:44;;;;;;;8.50;1.10;;;38.90;25.90;;;;;;6139975;28;20063;-74
2022/07/05 13:30:45;;;;;;;8.10;1.00;;;39.30;25.40;;;;;;6155711;28;20117;-74
2022/07/05 13:33:46;;;;;;;3.33;1.00;;;39.50;24.90;;;;;;6145020;28;20104;-73
2022/07/05 13:36:47;;;;;;;5.30;1.00;;;39.80;24.70;;;;;;6162434;28;20030;-73
2022/07/05 13:39:48;;;;;;;2.45;1.00;;;40.20;24.30;;;;;;6154641;28;20030;-73
2022/07/05 13:42:49;;;;;;;5.05;1.25;;;40.40;23.90;;;;;;6164879;28;20055;-73
2022/07/05 13:45:49;;;;;;;4.60;0.95;;;40.70;23.70;;;;;;6182569;28;20042;-74
2022/07/05 13:48:50;;;;;;;5.43;1.00;;;41.10;23.30;;;;;;6179327;28;20049;-75
2022/07/05 13:51:51;;;;;;;8.07;1.33;;;41.50;23.00;;;;;;6172412;28;20035;-75
2022/07/05 13:54:52;;;;;;;1.95;1.23;;;42.00;22.60;;;;;;6139844;28;20031;-74
2022/07/05 13:57:53;;;;;;;2.05;0.95;;;42.40;22.20;;;;;;6140839;28;20035;-74
2022/07/05 14:00:54;;;;;;;2.55;0.80;;;42.60;21.90;;;;;;6162124;28;20186;-74
2022/07/05 14:03:58;;;;;;;2.78;1.00;;;42.80;21.70;;;;;;6139189;28;20031;-74
2022/07/05 14:06:59;;;;;;;3.90;1.10;;;42.80;21.50;;;;;;6171890;28;20033;-73
2022/07/05 14:10:00;;;;;;;1.13;0.82;;;42.90;21.30;;;;;;6161312;28;20126;-75
2022/07/05 14:13:02;;;;;;;1.65;1.05;;;43.00;21.20;;;;;;6145277;28;20123;-73
2022/07/05 14:16:03;;;;;;;8.50;0.90;;;43.00;21.00;;;;;;6157979;28;20069;-74
2022/07/05 14:19:04;;;;;;;1.38;0.68;;;42.80;20.90;;;;;;6143161;28;20039;-72
2022/07/05 14:22:05;;;;;;;3.35;0.80;;;42.80;20.90;;;;;;6130348;29;20488;-72
2022/07/05 14:25:06;;;;;;;1.92;0.70;;;42.80;20.80;;;;;;6147487;29;20123;-73
2022/07/05 14:28:09;;;;;;;2.90;0.90;;;42.90;20.80;;;;;;6115066;29;20072;-73
2022/07/05 14:31:11;;;;;;;2.88;0.80;;;43.10;20.60;;;;;;6146441;29;20055;-75
2022/07/05 14:34:13;;;;;;;8.88;0.88;;;43.20;20.30;;;;;;6146803;29;20045;-72
2022/07/05 14:37:14;;;;;;;6.53;0.80;;;43.20;20.10;;;;;;6117329;29;20031;-74
2022/07/05 14:40:15;;;;;;;1.50;0.95;;;43.20;20.00;;;;;;6133297;29;20027;-74
2022/07/05 14:43:16;;;;;;;3.95;0.82;;;43.10;20.10;;;;;;6149291;29;20033;-74
2022/07/05 14:46:20;;;;;;;4.90;0.90;;;43.00;20.20;;;;;;6149779;29;20402;-74
2022/07/05 14:49:21;;;;;;;1.75;0.70;;;43.00;20.10;;;;;;6130039;29;20334;-73
2022/07/05 14:52:22;;;;;;;1.48;0.80;;;43.10;19.90;;;;;;6133608;29;20027;-74
2022/07/05 14:55:23;;;;;;;3.17;0.80;;;43.00;19.80;;;;;;6131943;29;20068;-75
2022/07/05 14:58:26;;;;;;;3.20;1.10;;;42.60;20.10;;;;;;6116999;29;20047;-75
2022/07/05 15:01:27;;;;;;;1.10;0.57;;;42.70;20.20;;;;;;6133397;28;20125;-75
2022/07/05 15:04:28;;;;;;;1.77;0.70;;;42.70;19.90;;;;;;6116793;28;20023;-74
2022/07/05 15:07:29;;;;;;;1.45;0.65;;;42.50;20.00;;;;;;6149360;28;20042;-72
2022/07/05 15:10:30;;;;;;;3.63;1.20;;;42.20;20.20;;;;;;6133022;29;20194;-73
2022/07/05 15:13:33;;;;;;;1.27;0.60;;;42.00;20.30;;;;;;6132804;29;20035;-74
2022/07/05 15:16:36;;;;;;;1.50;0.70;;;41.50;20.60;;;;;;6132878;28;20047;-73
2022/07/05 15:19:38;;;;;;;2.35;0.90;;;40.30;21.60;;;;;;6154041;28;20043;-74
2022/07/05 15:22:39;;;;;;;2.28;0.85;;;39.70;21.90;;;;;;6173867;28;20110;-74
2022/07/05 15:25:40;;;;;;;2.30;0.88;;;39.70;22.00;;;;;;6154711;28;20578;-74
2022/07/05 15:28:42;;;;;;;3.00;0.77;;;39.80;22.00;;;;;;6157167;28;20452;-74
2022/07/05 15:31:43;;;;;;;6.25;0.70;;;40.00;21.90;;;;;;6154305;28;20031;-73
2022/07/05 15:34:44;;;;;;;0.93;0.80;;;40.30;21.60;;;;;;6142747;28;20089;-73
2022/07/05 15:37:45;;;;;;;1.77;0.80;;;40.50;21.50;;;;;;6155952;28;20042;-74
2022/07/05 15:40:46;;;;;;;6.47;1.45;;;40.60;21.40;;;;;;6170976;28;20018;-74
2022/07/05 15:43:47;;;;;;;0.82;0.52;;;40.60;21.30;;;;;;6173030;28;20022;-74
2022/07/05 15:47:02;;;;;;;2.08;0.70;;;40.70;21.20;;;;;;6155503;28;20035;-74
2022/07/05 15:50:09;;;;;;;4.47;0.80;;;40.60;21.20;;;;;;6172590;28;20117;-75
2022/07/05 15:53:12;;;;;;;1.23;0.75;;;40.50;21.10;;;;;;6155743;28;20185;-74
2022/07/05 15:56:13;;;;;;;5.00;0.77;;;40.50;21.20;;;;;;6156537;28;20031;-73
2022/07/05 15:59:14;;;;;;;3.72;0.60;;;40.60;21.10;;;;;;6156185;28;20031;-73
2022/07/05 16:02:17;;;;;;;4.22;0.70;;;40.60;21.10;;;;;;6168328;28;20046;-75
2022/07/05 16:05:18;;;;;;;1.80;0.70;;;39.90;21.30;;;;;;6153223;28;20030;-75
2022/07/05 16:08:19;;;;;;;1.58;0.88;;;38.70;22.50;;;;;;6171583;28;20086;-74